Time;durP1;ratioP1;P1;durP2;ratioP2;P2;SDS_P1;SDS_P2;PMS_P1;PMS_P2;Temp;Humidity;BMP_temperature;BMP_pressure;BME280_temperature;BME280_humidity;BME280_pressure;Samples;Min_cycle;Max_cycle;Signal;HPM_P1;HPM_P2
2022/09/19 00:00:35;;;;;;;8.38;2.65;;;;;;;12.12;53.11;101269.59;7395054;19;20024;-59
2022/09/19 00:03:02;;;;;;;11.48;3.30;;;;;;;12.08;53.09;101268.69;7397320;19;20005;-59
2022/09/19 00:05:27;;;;;;;9.55;3.00;;;;;;;12.15;53.18;101270.88;7396375;19;20003;-59
2022/09/19 00:07:52;;;;;;;11.77;3.30;;;;;;;12.11;53.41;101272.72;7392360;19;20380;-56
2022/09/19 00:10:18;;;;;;;11.23;3.10;;;;;;;12.05;53.44;101280.31;7396488;19;20018;-59
2022/09/19 00:12:43;;;;;;;11.43;3.72;;;;;;;11.95;53.56;101278.81;7397172;19;20010;-59
2022/09/19 00:15:09;;;;;;;11.13;3.50;;;;;;;12.01;53.48;101280.19;7396957;19;20006;-59
2022/09/19 00:17:35;;;;;;;11.10;2.90;;;;;;;12.00;53.42;101288.75;7393539;19;20348;-59
2022/09/19 00:20:00;;;;;;;10.65;3.13;;;;;;;12.04;53.40;101289.69;7396477;19;20006;-59
2022/09/19 00:22:26;;;;;;;11.15;2.78;;;;;;;12.03;53.52;101293.53;7395899;19;20312;-59
2022/09/19 00:24:51;;;;;;;13.10;2.95;;;;;;;12.01;53.36;101284.88;7394319;19;20002;-59
2022/09/19 00:27:21;;;;;;;12.27;2.70;;;;;;;12.07;53.28;101291.72;7395617;19;19999;-59
2022/09/19 00:29:48;;;;;;;11.23;2.17;;;;;;;12.03;53.32;101294.34;7393455;19;20078;-59
2022/09/19 00:32:14;;;;;;;9.32;2.28;;;;;;;12.06;53.25;101303.00;7395652;19;20013;-59
2022/09/19 00:34:47;;;;;;;13.23;2.20;;;;;;;12.00;53.43;101299.69;7395634;19;20087;-58
2022/09/19 00:37:14;;;;;;;8.32;1.73;;;;;;;11.92;53.50;101297.84;7394060;19;20078;-58
2022/09/19 00:39:40;;;;;;;11.43;2.42;;;;;;;12.02;53.23;101294.66;7392211;19;20003;-59
2022/09/19 00:42:17;;;;;;;10.25;2.45;;;;;;;12.01;53.35;101295.84;7395824;19;20027;-59
2022/09/19 00:44:43;;;;;;;10.55;2.25;;;;;;;12.00;53.19;101296.97;7396446;19;20082;-58
2022/09/19 00:47:16;;;;;;;8.00;1.92;;;;;;;11.95;53.69;101297.16;7393763;19;19999;-58
2022/09/19 00:49:46;;;;;;;12.13;2.33;;;;;;;12.03;53.42;101301.75;7392887;19;20002;-59
2022/09/19 00:52:21;;;;;;;9.25;2.00;;;;;;;12.03;53.39;101304.50;7395389;19;20302;-59
2022/09/19 00:54:49;;;;;;;6.60;2.28;;;;;;;12.02;53.48;101303.69;7395751;19;20006;-59
2022/09/19 00:57:16;;;;;;;9.90;2.67;;;;;;;12.00;53.49;101296.97;7396074;19;20003;-59
2022/09/19 00:59:46;;;;;;;12.35;3.00;;;;;;;12.06;53.38;101305.72;7392194;19;20055;-59
2022/09/19 01:02:13;;;;;;;12.15;4.50;;;;;;;12.02;53.86;101311.09;7395314;19;20002;-59
2022/09/19 01:04:40;;;;;;;10.68;4.97;;;;;;;11.95;53.85;101311.63;7393614;19;20003;-59
2022/09/19 01:07:08;;;;;;;12.73;4.00;;;;;;;11.97;53.97;101316.78;7394824;19;19998;-59
2022/09/19 01:10:03;;;;;;;11.90;3.60;;;;;;;12.03;53.85;101310.75;7391207;19;20037;-58
2022/09/19 01:12:57;;;;;;;8.80;2.70;;;;;;;12.11;54.12;101311.00;7395201;19;20007;-59
2022/09/19 01:15:54;;;;;;;7.28;1.90;;;;;;;12.19;53.50;101316.38;7394964;19;20025;-59
2022/09/19 01:18:36;;;;;;;8.85;2.42;;;;;;;12.23;53.66;101316.50;7392711;19;20003;-59
2022/09/19 01:24:25;;;;;;;8.32;2.25;;;;;;;12.18;53.97;101320.25;7393549;19;20335;-59
2022/09/19 01:27:09;;;;;;;9.43;3.30;;;;;;;12.21;54.12;101316.03;7393475;19;19998;-58
2022/09/19 01:29:47;;;;;;;13.88;3.50;;;;;;;12.33;53.80;101318.00;7390966;19;20017;-59
2022/09/19 01:32:28;;;;;;;16.38;4.82;;;;;;;12.28;54.24;101324.47;7391790;19;19995;-57
2022/09/19 01:34:59;;;;;;;19.00;5.55;;;;;;;12.31;53.71;101331.22;7392973;19;20003;-59
2022/09/19 01:37:31;;;;;;;17.77;5.50;;;;;;;12.36;53.87;101334.53;7392218;19;19995;-58
2022/09/19 01:40:01;;;;;;;15.43;4.97;;;;;;;12.32;53.84;101349.22;7392919;19;19987;-58
2022/09/19 01:42:34;;;;;;;12.82;4.57;;;;;;;12.31;54.00;101342.97;7394440;19;20002;-58
2022/09/19 01:44:59;;;;;;;15.32;5.25;;;;;;;12.38;54.02;101350.63;7394832;19;20035;-59
2022/09/19 01:47:58;;;;;;;11.20;4.20;;;;;;;12.37;54.29;101340.78;7394563;19;19994;-59
2022/09/19 01:51:06;;;;;;;13.43;4.45;;;;;;;12.40;54.49;101351.06;7391428;19;20074;-59
2022/09/19 01:53:50;;;;;;;13.40;4.93;;;;;;;12.44;54.28;101359.41;7390289;19;20006;-58
2022/09/19 01:56:25;;;;;;;12.23;4.78;;;;;;;12.44;54.26;101351.19;7393543;19;20477;-56
2022/09/19 01:59:14;;;;;;;15.07;5.22;;;;;;;12.48;54.22;101360.34;7392008;19;20319;-57
2022/09/19 02:01:50;;;;;;;13.82;4.90;;;;;;;12.49;54.36;101356.44;7394013;19;20010;-57
2022/09/19 02:04:31;;;;;;;16.30;4.90;;;;;;;12.48;54.51;101361.13;7392149;19;20005;-57
2022/09/19 02:07:07;;;;;;;14.52;4.68;;;;;;;12.55;54.10;101361.34;7391516;19;20003;-58
2022/09/19 02:09:51;;;;;;;12.93;3.55;;;;;;;12.64;54.27;101369.47;7391357;19;20014;-58
2022/09/19 02:12:20;;;;;;;13.48;4.10;;;;;;;12.62;54.20;101368.19;7393239;19;20014;-58
2022/09/19 02:14:54;;;;;;;10.82;3.25;;;;;;;12.57;54.40;101367.31;7393616;19;20066;-58
2022/09/19 02:17:44;;;;;;;11.02;2.70;;;;;;;12.59;54.68;101367.75;7391191;19;20007;-57
2022/09/19 02:20:16;;;;;;;10.20;2.20;;;;;;;12.59;54.40;101370.50;7392506;19;20011;-58
2022/09/19 02:22:47;;;;;;;7.72;1.90;;;;;;;12.60;54.26;101365.81;7393153;19;20017;-58
2022/09/19 02:25:17;;;;;;;7.13;2.35;;;;;;;12.70;54.29;101370.03;7393131;19;20010;-58
2022/09/19 02:27:54;;;;;;;10.25;2.92;;;;;;;12.66;54.41;101369.94;7392364;19;19998;-58
2022/09/19 02:30:20;;;;;;;11.48;4.10;;;;;;;12.73;54.46;101372.09;7391348;19;20077;-58
2022/09/19 02:32:47;;;;;;;11.65;4.80;;;;;;;12.78;54.59;101374.59;7390710;19;20348;-59
2022/09/19 02:35:15;;;;;;;14.68;6.10;;;;;;;12.76;54.68;101379.63;7393295;19;20017;-59
2022/09/19 02:38:16;;;;;;;16.25;7.90;;;;;;;12.80;54.96;101377.78;7390142;19;20485;-59
2022/09/19 02:40:51;;;;;;;18.13;9.07;;;;;;;12.78;54.75;101382.81;7389655;19;20466;-59
2022/09/19 02:43:26;;;;;;;18.05;6.30;;;;;;;12.66;54.70;101385.53;7390841;19;20003;-59
2022/09/19 02:45:55;;;;;;;15.05;5.78;;;;;;;12.76;54.65;101380.44;7392399;19;20011;-60
2022/09/19 02:48:30;;;;;;;14.98;4.88;;;;;;;12.77;54.22;101381.22;7390853;19;20010;-59
2022/09/19 02:51:07;;;;;;;16.25;3.00;;;;;;;12.86;54.00;101392.06;7392482;19;19994;-59
2022/09/19 02:53:42;;;;;;;11.90;2.97;;;;;;;12.89;53.76;101389.47;7392429;19;20006;-59
2022/09/19 02:56:11;;;;;;;14.45;2.40;;;;;;;12.80;53.74;101386.00;7391703;19;20386;-59
2022/09/19 02:58:44;;;;;;;13.48;2.90;;;;;;;12.83;53.44;101385.34;7395176;19;20014;-59
2022/09/19 03:01:15;;;;;;;;;;;;;;;12.87;53.83;101397.22;7391937;19;20495;-59
2022/09/19 03:06:59;;;;;;;7.95;1.15;;;;;;;12.68;54.83;101397.75;7391716;19;20030;-59
2022/09/19 03:09:30;;;;;;;7.72;1.15;;;;;;;12.56;54.89;101404.03;7388452;19;20020;-58
2022/09/19 03:12:07;;;;;;;8.38;1.23;;;;;;;12.65;54.44;101398.44;7391835;19;20003;-58
2022/09/19 03:14:33;;;;;;;9.20;1.52;;;;;;;12.56;54.74;101386.81;7390173;19;19999;-58
2022/09/19 03:17:01;;;;;;;8.73;1.25;;;;;;;12.24;55.44;101397.47;7390101;19;20074;-58
2022/09/19 03:19:29;;;;;;;11.07;1.52;;;;;;;12.43;54.69;101396.16;7390312;19;20006;-58
2022/09/19 03:21:55;;;;;;;7.97;1.23;;;;;;;12.56;54.59;101403.25;7389508;19;20002;-58
2022/09/19 03:24:22;;;;;;;4.43;1.23;;;;;;;12.63;54.36;101402.69;7391266;19;20010;-58
2022/09/19 03:26:48;;;;;;;4.47;1.00;;;;;;;12.53;54.60;101399.22;7391014;19;20002;-58
2022/09/19 03:29:15;;;;;;;8.43;1.00;;;;;;;12.53;54.72;101403.91;7389121;19;20034;-59
2022/09/19 03:31:45;;;;;;;7.05;1.10;;;;;;;12.58;54.67;101400.94;7388955;19;20033;-59
2022/09/19 03:34:12;;;;;;;8.68;1.38;;;;;;;12.56;54.78;101398.56;7389271;19;20019;-58
2022/09/19 03:36:38;;;;;;;7.38;1.00;;;;;;;12.49;54.79;101409.28;7389702;19;20458;-58
2022/09/19 03:39:04;;;;;;;6.53;1.20;;;;;;;12.52;54.44;101405.03;7389139;19;19999;-58
2022/09/19 03:41:30;;;;;;;8.65;1.15;;;;;;;12.54;54.54;101416.44;7390472;19;20001;-58
2022/09/19 03:44:00;;;;;;;8.07;1.63;;;;;;;12.58;54.42;101412.69;7390765;19;20003;-58
2022/09/19 03:46:26;;;;;;;11.23;1.27;;;;;;;12.58;54.37;101422.84;7388867;19;20311;-58
2022/09/19 03:48:52;;;;;;;7.40;1.20;;;;;;;12.58;54.33;101423.66;7388576;19;19999;-58
2022/09/19 03:51:18;;;;;;;7.38;1.20;;;;;;;12.55;54.41;101429.81;7391074;19;20006;-58
2022/09/19 03:53:44;;;;;;;8.40;1.67;;;;;;;12.44;54.93;101427.84;7388791;19;19994;-59
2022/09/19 03:56:11;;;;;;;8.48;1.50;;;;;;;12.43;54.63;101427.06;7390215;19;20002;-58
2022/09/19 03:58:38;;;;;;;8.77;1.80;;;;;;;12.45;54.69;101424.75;7393467;19;20003;-58
2022/09/19 04:01:06;;;;;;;6.80;1.05;;;;;;;12.53;54.51;101418.41;7388748;19;20344;-59
2022/09/19 04:03:36;;;;;;;8.20;1.10;;;;;;;12.47;54.18;101422.47;7389237;19;20014;-58
2022/09/19 04:06:04;;;;;;;8.43;1.30;;;;;;;12.51;54.55;101437.09;7388434;19;20026;-59
2022/09/19 04:08:29;;;;;;;7.75;1.25;;;;;;;12.58;54.46;101434.59;7387624;19;20348;-58
2022/09/19 04:10:55;;;;;;;9.48;1.73;;;;;;;12.41;54.86;101440.28;7389908;19;20018;-58
2022/09/19 04:13:21;;;;;;;6.18;1.40;;;;;;;12.42;55.03;101436.38;7389583;19;19999;-58
2022/09/19 04:15:51;;;;;;;9.50;1.20;;;;;;;12.36;54.90;101433.06;7396676;19;20319;-58
2022/09/19 04:18:18;;;;;;;13.55;1.52;;;;;;;12.35;54.50;101441.63;7393809;19;20023;-58
2022/09/19 04:20:46;;;;;;;5.30;0.93;;;;;;;12.19;54.81;101439.53;7397505;19;19990;-58
2022/09/19 04:23:13;;;;;;;9.35;1.58;;;;;;;12.10;55.17;101446.22;7396905;19;19991;-58
2022/09/19 04:25:39;;;;;;;8.27;1.42;;;;;;;12.19;54.81;101449.66;7395969;19;20002;-58
2022/09/19 04:28:07;;;;;;;8.68;1.30;;;;;;;12.15;54.64;101455.00;7394855;19;20010;-59
2022/09/19 04:30:35;;;;;;;11.27;1.35;;;;;;;12.07;55.01;101461.34;7397416;19;20018;-58
2022/09/19 04:33:03;;;;;;;8.00;1.45;;;;;;;12.00;55.03;101463.84;7396545;19;20058;-59
2022/09/19 04:35:35;;;;;;;11.82;1.40;;;;;;;12.04;54.92;101453.84;7396054;19;20516;-59
2022/09/19 04:38:08;;;;;;;12.68;1.88;;;;;;;12.03;54.78;101460.44;7393576;19;20019;-59
2022/09/19 04:40:44;;;;;;;9.32;1.77;;;;;;;12.04;54.56;101459.31;7397175;19;20205;-58
2022/09/19 04:43:12;;;;;;;5.63;1.25;;;;;;;11.91;54.82;101461.19;7396104;19;19998;-58
2022/09/19 04:45:39;;;;;;;6.50;1.23;;;;;;;11.92;55.03;101461.97;7396968;19;20062;-58
2022/09/19 04:48:06;;;;;;;7.95;1.30;;;;;;;11.84;55.25;101464.44;7394319;19;20003;-58
2022/09/19 04:50:35;;;;;;;9.68;1.33;;;;;;;11.68;55.33;101468.88;7396396;19;20002;-58
2022/09/19 04:53:01;;;;;;;10.48;1.60;;;;;;;11.83;55.13;101476.50;7396375;19;20302;-59
2022/09/19 04:55:27;;;;;;;13.77;1.90;;;;;;;11.87;54.71;101471.19;7396356;19;19995;-59
2022/09/19 04:57:54;;;;;;;16.52;2.22;;;;;;;11.87;54.38;101479.38;7396020;19;20032;-59
2022/09/19 05:00:36;;;;;;;13.10;1.88;;;;;;;11.82;54.74;101474.91;7394161;19;20003;-59
2022/09/19 05:03:14;;;;;;;7.60;1.52;;;;;;;11.81;54.66;101473.28;7395820;19;20022;-58
2022/09/19 05:05:44;;;;;;;12.50;1.80;;;;;;;11.77;54.50;101483.31;7395986;19;20031;-59
2022/09/19 05:08:12;;;;;;;11.88;1.95;;;;;;;11.79;54.65;101481.03;7393108;19;20002;-59
2022/09/19 05:10:38;;;;;;;11.82;1.90;;;;;;;11.69;54.69;101489.63;7394020;19;20033;-59
2022/09/19 05:13:03;;;;;;;12.85;1.50;;;;;;;11.75;54.63;101491.03;7395204;19;20465;-58
2022/09/19 05:15:29;;;;;;;9.70;1.85;;;;;;;11.70;54.61;101490.44;7395384;19;20011;-59
2022/09/19 05:17:55;;;;;;;10.63;2.10;;;;;;;11.65;54.55;101481.28;7392506;19;19995;-58
2022/09/19 05:20:25;;;;;;;10.18;1.63;;;;;;;11.70;54.41;101493.16;7393399;19;19999;-59
2022/09/19 05:22:58;;;;;;;9.68;2.00;;;;;;;11.78;54.59;101500.50;7394942;19;19999;-58
2022/09/19 05:25:28;;;;;;;15.90;2.08;;;;;;;11.75;54.26;101510.16;7394753;19;20416;-59
2022/09/19 05:27:56;;;;;;;17.13;2.70;;;;;;;11.63;54.49;101504.63;7393745;19;19999;-58
2022/09/19 05:30:24;;;;;;;14.55;2.30;;;;;;;11.57;54.77;101508.69;7395192;19;20312;-58
2022/09/19 05:32:50;;;;;;;19.55;2.88;;;;;;;11.43;55.06;101512.44;7394771;19;20458;-59
2022/09/19 05:35:16;;;;;;;12.60;2.08;;;;;;;11.56;54.86;101509.81;7394047;19;20465;-58
2022/09/19 05:37:42;;;;;;;16.75;2.55;;;;;;;11.64;54.45;101509.75;7390216;19;19998;-59
2022/09/19 05:40:10;;;;;;;12.93;2.17;;;;;;;11.59;54.47;101511.88;7394634;19;20174;-58
2022/09/19 05:42:43;;;;;;;13.55;2.13;;;;;;;11.63;54.35;101516.34;7394562;19;19999;-59
2022/09/19 05:45:11;;;;;;;12.67;2.33;;;;;;;11.63;54.47;101510.09;7394437;19;20003;-59
2022/09/19 05:47:39;;;;;;;14.15;2.60;;;;;;;11.71;54.01;101520.19;7392963;19;19994;-59
2022/09/19 05:50:09;;;;;;;13.15;2.00;;;;;;;11.73;53.92;101525.31;7394494;19;20006;-59
2022/09/19 05:55:20;;;;;;;13.18;2.40;;;;;;;11.64;54.09;101520.69;7394570;19;20002;-59
2022/09/19 05:57:51;;;;;;;14.43;2.40;;;;;;;11.57;54.48;101519.63;7394535;19;20009;-59
2022/09/19 06:00:16;;;;;;;13.27;2.53;;;;;;;11.61;54.32;101523.31;7394332;19;20014;-58
2022/09/19 06:02:41;;;;;;;14.50;2.65;;;;;;;11.55;54.54;101527.34;7393878;19;20003;-59
2022/09/19 06:05:07;;;;;;;16.13;2.95;;;;;;;11.74;53.95;101537.84;7393657;19;20003;-59
2022/09/19 06:07:32;;;;;;;14.02;2.83;;;;;;;11.56;54.67;101527.03;7392109;19;20005;-59
2022/09/19 06:09:58;;;;;;;14.40;2.78;;;;;;;11.58;54.31;101527.47;7393179;19;20018;-59
2022/09/19 06:12:24;;;;;;;18.23;2.42;;;;;;;11.62;54.47;101530.34;7393682;19;20002;-59
2022/09/19 06:14:49;;;;;;;14.68;2.33;;;;;;;11.79;53.89;101516.59;7393022;19;20020;-58
2022/09/19 06:17:16;;;;;;;12.68;2.33;;;;;;;11.85;54.04;101533.63;7392584;19;20028;-59
2022/09/19 06:19:42;;;;;;;12.20;2.47;;;;;;;11.86;53.81;101535.25;7390877;19;20003;-58
2022/09/19 06:22:07;;;;;;;11.90;2.22;;;;;;;11.83;54.03;101539.41;7393445;19;20088;-59
2022/09/19 06:24:33;;;;;;;15.13;2.60;;;;;;;11.69;54.60;101544.31;7392568;19;20010;-58
2022/09/19 06:26:58;;;;;;;11.23;2.50;;;;;;;11.78;54.02;101533.34;7393165;19;20020;-58
2022/09/19 06:29:24;;;;;;;13.70;2.30;;;;;;;11.86;53.90;101540.72;7389224;19;19999;-59
2022/09/19 06:31:49;;;;;;;11.73;2.35;;;;;;;12.00;53.52;101534.97;7390827;19;19998;-58
2022/09/19 06:34:15;;;;;;;13.55;2.40;;;;;;;11.98;53.63;101550.94;7392717;19;19998;-58
2022/09/19 06:36:43;;;;;;;14.93;2.10;;;;;;;11.97;53.84;101546.56;7391622;19;19998;-58
2022/09/19 06:39:08;;;;;;;18.52;2.47;;;;;;;12.02;53.80;101549.13;7390598;19;20099;-59
2022/09/19 06:41:34;;;;;;;14.63;2.40;;;;;;;12.10;53.81;101553.72;7392941;19;20086;-58
2022/09/19 06:44:01;;;;;;;13.45;2.30;;;;;;;12.08;53.82;101553.25;7390554;19;20065;-58
2022/09/19 06:46:26;;;;;;;17.33;3.15;;;;;;;12.05;54.11;101556.66;7392179;19;19998;-58
2022/09/19 06:48:52;;;;;;;13.55;2.63;;;;;;;12.01;54.23;101561.22;7389932;19;19995;-58
2022/09/19 06:51:17;;;;;;;14.40;2.30;;;;;;;12.11;54.21;101551.81;7392278;19;20070;-58
2022/09/19 06:53:43;;;;;;;18.08;2.90;;;;;;;12.25;54.02;101559.75;7392127;19;20087;-58
2022/09/19 06:56:08;;;;;;;20.90;2.75;;;;;;;12.34;53.74;101561.28;7392262;19;19995;-59
2022/09/19 06:58:34;;;;;;;15.75;3.08;;;;;;;12.37;53.81;101565.28;7394709;19;20007;-59
2022/09/19 07:01:01;;;;;;;20.52;2.72;;;;;;;12.39;53.90;101569.28;7390360;19;20062;-59
2022/09/19 07:03:26;;;;;;;20.60;3.00;;;;;;;12.35;54.26;101567.53;7391790;19;20006;-59
2022/09/19 07:05:52;;;;;;;16.83;3.47;;;;;;;12.42;54.05;101565.06;7391444;19;20022;-58
2022/09/19 07:08:17;;;;;;;24.63;3.53;;;;;;;12.48;54.29;101566.47;7389802;19;20009;-58
2022/09/19 07:10:43;;;;;;;19.25;2.97;;;;;;;12.49;53.98;101568.09;7391315;19;20010;-59
2022/09/19 07:13:13;;;;;;;16.02;2.80;;;;;;;12.52;54.10;101569.34;7391802;19;20017;-59
2022/09/19 07:15:39;;;;;;;18.05;3.10;;;;;;;12.58;54.00;101566.06;7391527;19;20013;-58
2022/09/19 07:18:12;;;;;;;18.77;3.00;;;;;;;12.73;53.64;101572.84;7388834;19;20608;-59
2022/09/19 07:20:38;;;;;;;15.70;2.80;;;;;;;12.76;53.81;101580.38;7389382;19;20391;-59
2022/09/19 07:23:09;;;;;;;20.73;3.17;;;;;;;12.82;53.66;101578.22;7391640;19;20024;-59
2022/09/19 07:25:34;;;;;;;21.80;3.70;;;;;;;12.68;53.97;101575.78;7389984;19;20391;-58
2022/09/19 07:28:03;;;;;;;17.95;3.22;;;;;;;12.88;53.60;101590.59;7388347;19;20066;-57
2022/09/19 07:30:30;;;;;;;17.17;2.80;;;;;;;13.00;53.62;101583.56;7391242;19;20022;-59
2022/09/19 07:32:57;;;;;;;19.60;3.50;;;;;;;12.97;53.79;101587.78;7391196;19;20466;-59
2022/09/19 07:35:27;;;;;;;25.08;3.45;;;;;;;13.01;53.61;101587.91;7390637;19;20062;-58
2022/09/19 07:37:54;;;;;;;18.95;3.33;;;;;;;12.96;53.96;101592.47;7388904;19;20003;-59
2022/09/19 07:40:20;;;;;;;16.10;3.38;;;;;;;13.11;53.64;101590.22;7391349;19;19998;-59
2022/09/19 07:42:46;;;;;;;19.02;3.60;;;;;;;13.13;53.73;101590.69;7389720;19;20025;-58
2022/09/19 07:45:11;;;;;;;17.77;3.78;;;;;;;13.12;53.70;101592.59;7391007;19;19998;-59
2022/09/19 07:47:46;;;;;;;18.77;3.35;;;;;;;13.25;53.59;101596.19;7389750;19;19994;-59
2022/09/19 07:50:16;;;;;;;20.10;3.03;;;;;;;13.36;53.56;101604.78;7395511;19;19998;-59
2022/09/19 07:52:46;;;;;;;14.32;3.05;;;;;;;13.36;53.84;101598.47;7398538;19;20006;-59
2022/09/19 07:55:12;;;;;;;17.00;3.22;;;;;;;13.33;54.13;101605.44;7397588;19;19990;-59
2022/09/19 07:57:37;;;;;;;14.77;3.00;;;;;;;13.45;53.43;101607.41;7397547;19;20494;-59
2022/09/19 08:00:04;;;;;;;19.70;3.85;;;;;;;13.53;53.54;101611.97;7395865;19;19999;-59
2022/09/19 08:02:30;;;;;;;20.05;3.78;;;;;;;13.36;53.79;101614.91;7397485;19;20899;-58
2022/09/19 08:04:55;;;;;;;13.95;3.53;;;;;;;13.52;53.65;101613.13;7397909;19;19998;-59
2022/09/19 08:07:20;;;;;;;16.58;2.90;;;;;;;13.62;53.68;101614.59;7397323;19;20458;-59
2022/09/19 08:09:46;;;;;;;21.38;3.58;;;;;;;13.66;53.59;101616.34;7394078;19;20014;-59
2022/09/19 08:12:12;;;;;;;18.15;3.38;;;;;;;13.68;53.28;101619.53;7398087;19;20029;-59
2022/09/19 08:14:38;;;;;;;19.35;3.70;;;;;;;13.79;53.43;101622.59;7395740;19;20518;-59
2022/09/19 08:17:04;;;;;;;17.88;3.58;;;;;;;13.67;53.12;101617.91;7396272;19;20012;-57
2022/09/19 08:19:30;;;;;;;20.25;4.22;;;;;;;13.82;53.02;101623.88;7394264;19;20002;-58
2022/09/19 08:21:58;;;;;;;18.52;4.18;;;;;;;13.93;52.69;101621.47;7395039;19;19998;-59
2022/09/19 08:24:24;;;;;;;24.15;4.07;;;;;;;14.03;52.37;101621.81;7395139;19;20054;-59
2022/09/19 08:26:50;;;;;;;25.42;3.78;;;;;;;14.01;52.57;101624.13;7394912;19;20036;-59
2022/09/19 08:29:15;;;;;;;24.98;3.90;;;;;;;14.18;52.31;101622.28;7394441;19;20550;-59
2022/09/19 08:31:41;;;;;;;22.13;4.30;;;;;;;14.20;52.59;101625.47;7396491;19;20116;-59
2022/09/19 08:34:08;;;;;;;18.50;3.33;;;;;;;14.22;52.54;101628.66;7396982;19;20027;-59
2022/09/19 08:36:34;;;;;;;20.13;3.55;;;;;;;14.33;52.79;101626.22;7395473;19;20474;-59
2022/09/19 08:39:00;;;;;;;17.23;3.08;;;;;;;14.31;52.80;101626.59;7394353;19;20009;-58
2022/09/19 08:41:25;;;;;;;15.07;2.90;;;;;;;14.30;52.92;101630.47;7395593;19;20300;-58
2022/09/19 08:43:59;;;;;;;14.23;2.70;;;;;;;14.37;52.78;101636.16;7396192;19;20002;-58
2022/09/19 08:46:47;;;;;;;23.23;3.47;;;;;;;14.43;52.21;101634.78;7394091;19;20006;-59
2022/09/19 08:49:23;;;;;;;17.52;4.15;;;;;;;14.44;52.46;101633.66;7393396;19;20018;-59
2022/09/19 08:51:59;;;;;;;26.02;4.40;;;;;;;14.57;51.93;101633.59;7393938;19;20006;-59
2022/09/19 08:54:33;;;;;;;22.60;3.42;;;;;;;14.62;51.76;101634.16;7395966;19;20037;-58
2022/09/19 08:56:59;;;;;;;17.48;3.80;;;;;;;14.69;51.67;101630.81;7394160;19;20002;-58
2022/09/19 08:59:36;;;;;;;16.15;3.75;;;;;;;14.72;51.33;101635.59;7392830;19;20147;-59
2022/09/19 09:02:29;;;;;;;18.17;3.45;;;;;;;14.78;51.11;101627.94;7395372;19;20078;-59
2022/09/19 09:04:55;;;;;;;14.77;3.03;;;;;;;14.90;51.00;101635.34;7395303;19;20005;-58
2022/09/19 09:07:49;;;;;;;25.38;3.83;;;;;;;14.92;51.25;101638.53;7394685;19;20366;-58
2022/09/19 09:10:34;;;;;;;22.05;3.67;;;;;;;15.15;50.98;101633.25;7395686;19;20478;-58
2022/09/19 09:13:24;;;;;;;21.95;3.58;;;;;;;15.11;50.65;101638.69;7395670;19;20007;-59
2022/09/19 09:16:02;;;;;;;17.38;3.35;;;;;;;15.16;50.80;101632.91;7395553;19;20007;-59
2022/09/19 09:19:02;;;;;;;18.58;3.20;;;;;;;15.28;50.79;101628.47;7392306;19;19999;-59
2022/09/19 09:21:59;;;;;;;16.95;3.17;;;;;;;15.37;50.39;101620.84;7394756;19;19994;-59
2022/09/19 09:24:39;;;;;;;22.90;3.97;;;;;;;15.42;50.35;101631.59;7393327;19;20072;-59
2022/09/19 09:27:11;;;;;;;17.35;3.58;;;;;;;15.52;50.06;101622.81;7394741;19;20003;-59
2022/09/19 09:29:42;;;;;;;17.58;2.85;;;;;;;15.55;50.14;101621.31;7392298;19;19998;-59
2022/09/19 09:32:17;;;;;;;17.77;3.28;;;;;;;15.51;50.13;101621.22;7394276;19;20002;-59
2022/09/19 09:34:54;;;;;;;20.33;3.03;;;;;;;15.59;49.83;101610.38;7395082;19;20002;-59
2022/09/19 09:37:26;;;;;;;19.95;3.38;;;;;;;15.64;49.75;101612.91;7392681;19;20489;-59
2022/09/19 09:40:00;;;;;;;17.75;3.03;;;;;;;15.62;49.93;101624.22;7391488;19;20043;-59
2022/09/19 09:42:37;;;;;;;19.27;3.45;;;;;;;15.57;49.48;101612.69;7393379;19;20459;-59
2022/09/19 09:45:22;;;;;;;15.90;2.50;;;;;;;15.68;49.00;101614.59;7394780;19;20007;-58
2022/09/19 09:48:05;;;;;;;20.92;3.03;;;;;;;15.77;48.74;101625.41;7392605;19;20407;-59
2022/09/19 09:50:52;;;;;;;16.00;3.38;;;;;;;15.46;49.62;101629.72;7394605;19;20011;-59
2022/09/19 09:53:51;;;;;;;22.92;3.17;;;;;;;15.48;49.10;101624.69;7393057;19;20466;-58
2022/09/19 09:56:43;;;;;;;24.50;3.33;;;;;;;15.38;49.81;101638.16;7393480;19;19999;-58
2022/09/19 10:05:20;;;;;;;8.27;1.15;;;;;;;13.79;51.29;101660.22;7393763;19;20006;-58
2022/09/19 10:08:03;;;;;;;5.65;1.00;;;;;;;13.93;51.45;101644.25;7392247;19;20006;-58
2022/09/19 10:10:31;;;;;;;7.55;0.82;;;;;;;14.05;50.73;101636.00;7392935;19;20011;-58
2022/09/19 10:13:08;;;;;;;6.03;0.82;;;;;;;14.20;50.43;101641.94;7391756;19;20006;-58
2022/09/19 10:15:39;;;;;;;7.38;1.20;;;;;;;14.29;51.19;101645.34;7393388;19;20470;-58
2022/09/19 10:18:15;;;;;;;3.72;0.90;;;;;;;14.18;51.55;101645.03;7391247;19;20445;-58
2022/09/19 10:20:49;;;;;;;4.38;1.15;;;;;;;14.10;51.98;101637.72;7391969;19;20018;-58
2022/09/19 10:23:32;;;;;;;4.25;1.27;;;;;;;14.14;53.12;101638.59;7391319;19;19998;-57
2022/09/19 10:26:14;;;;;;;4.55;1.13;;;;;;;14.14;52.87;101638.59;7393051;19;19999;-58
2022/09/19 10:28:48;;;;;;;4.65;1.00;;;;;;;14.18;52.50;101638.75;7389162;19;20033;-57
2022/09/19 10:31:41;;;;;;;8.60;1.35;;;;;;;14.38;52.84;101637.78;7392124;19;20574;-58
2022/09/19 10:34:31;;;;;;;6.85;1.50;;;;;;;14.55;52.59;101628.44;7392050;19;20066;-56
2022/09/19 10:37:02;;;;;;;10.40;1.67;;;;;;;14.64;52.52;101633.78;7391664;19;20009;-57
2022/09/19 10:39:29;;;;;;;13.75;2.55;;;;;;;14.61;53.03;101635.31;7390399;19;20013;-57
2022/09/19 10:41:54;;;;;;;16.80;3.00;;;;;;;14.52;52.33;101628.34;7392059;19;20006;-57
2022/09/19 10:44:23;;;;;;;15.20;2.70;;;;;;;14.54;51.87;101631.53;7391280;19;20006;-57
2022/09/19 10:46:54;;;;;;;10.52;2.88;;;;;;;14.65;51.50;101640.91;7392227;19;19991;-57
2022/09/19 10:49:25;;;;;;;12.52;2.53;;;;;;;14.84;50.79;101644.97;7389850;19;20510;-57
2022/09/19 10:51:52;;;;;;;15.10;2.90;;;;;;;14.97;50.23;101646.53;7392325;19;20026;-57
2022/09/19 10:54:40;;;;;;;13.55;1.98;;;;;;;15.16;50.45;101637.59;7392110;19;19991;-57
2022/09/19 10:57:25;;;;;;;8.30;1.52;;;;;;;15.27;49.88;101644.19;7393194;19;20018;-57
2022/09/19 10:59:52;;;;;;;7.88;1.92;;;;;;;15.51;49.94;101658.91;7387268;19;20399;-58
2022/09/19 11:02:26;;;;;;;9.85;1.50;;;;;;;15.46;49.58;101648.97;7391295;19;19998;-57
2022/09/19 11:04:54;;;;;;;;;;;;;;;15.34;51.19;101649.06;7392674;19;20002;-58
2022/09/19 11:07:31;;;;;;;11.57;2.10;;;;;;;15.30;50.81;101653.69;7389882;19;20334;-58
2022/09/19 11:10:01;;;;;;;11.02;2.20;;;;;;;15.47;50.40;101634.06;7387978;19;20096;-58
2022/09/19 11:12:30;;;;;;;16.00;2.30;;;;;;;15.56;50.53;101628.38;7391505;19;19994;-57
2022/09/19 11:14:57;;;;;;;15.60;3.38;;;;;;;15.30;51.35;101650.94;7391262;19;20087;-57
2022/09/19 11:17:31;;;;;;;12.63;2.03;;;;;;;14.98;52.34;101659.13;7390338;19;20150;-57
2022/09/19 11:20:17;;;;;;;15.07;2.42;;;;;;;14.85;53.00;101671.31;7391405;19;20006;-56
2022/09/19 11:22:45;;;;;;;13.07;2.20;;;;;;;14.68;53.42;101661.38;7391865;19;19995;-56
2022/09/19 11:25:41;;;;;;;13.38;2.83;;;;;;;14.78;53.26;101655.44;7399214;19;19999;-56
2022/09/19 11:28:37;;;;;;;16.65;3.78;;;;;;;14.77;53.57;101662.06;7396495;19;20458;-57
2022/09/19 11:31:21;;;;;;;18.38;3.00;;;;;;;14.86;53.06;101662.72;7399142;19;20091;-57
2022/09/19 11:34:05;;;;;;;17.40;3.20;;;;;;;14.93;53.29;101656.59;7398563;19;20018;-57
2022/09/19 11:36:52;;;;;;;16.15;3.00;;;;;;;15.13;52.89;101649.28;7396401;19;19999;-58
2022/09/19 11:39:21;;;;;;;17.35;3.55;;;;;;;15.18;52.84;101647.09;7393132;19;20062;-59
2022/09/19 11:42:20;;;;;;;15.15;3.53;;;;;;;15.17;53.30;101634.50;7399438;19;20025;-56
2022/09/19 11:44:58;;;;;;;20.83;3.80;;;;;;;15.28;52.69;101642.22;7398695;19;19995;-56
2022/09/19 11:47:32;;;;;;;17.48;3.75;;;;;;;15.21;52.72;101639.28;7397769;19;20073;-57
2022/09/19 11:50:10;;;;;;;18.88;3.60;;;;;;;15.36;52.29;101647.56;7396667;19;20036;-56
2022/09/19 11:53:13;;;;;;;18.05;3.80;;;;;;;15.39;52.11;101639.75;7397747;19;20077;-56
2022/09/19 11:55:54;;;;;;;18.38;3.75;;;;;;;15.27;52.58;101646.13;7395817;19;19995;-57